sensor_id;sensor_type;location;lat;lon;timestamp;P1;durP1;ratioP1;P2;durP2;ratioP2
75916;SDS011;64595;50.148;14.334;2023-05-24T00:00:48;3.33;;;1.83;;
75916;SDS011;64595;50.148;14.334;2023-05-24T00:03:13;3.10;;;2.00;;
75916;SDS011;64595;50.148;14.334;2023-05-24T00:05:40;3.33;;;2.03;;
75916;SDS011;64595;50.148;14.334;2023-05-24T00:08:05;3.58;;;1.90;;
75916;SDS011;64595;50.148;14.334;2023-05-24T00:10:31;3.65;;;2.15;;
75916;SDS011;64595;50.148;14.334;2023-05-24T00:12:56;4.03;;;2.00;;
75916;SDS011;64595;50.148;14.334;2023-05-24T00:15:22;2.60;;;1.90;;
75916;SDS011;64595;50.148;14.334;2023-05-24T00:17:47;3.67;;;2.10;;
75916;SDS011;64595;50.148;14.334;2023-05-24T00:20:13;3.10;;;2.10;;
75916;SDS011;64595;50.148;14.334;2023-05-24T00:22:40;5.10;;;2.13;;
75916;SDS011;64595;50.148;14.334;2023-05-24T00:25:06;2.72;;;2.05;;
75916;SDS011;64595;50.148;14.334;2023-05-24T00:27:32;2.75;;;2.00;;
75916;SDS011;64595;50.148;14.334;2023-05-24T00:29:57;3.25;;;1.98;;
75916;SDS011;64595;50.148;14.334;2023-05-24T00:32:23;5.38;;;2.13;;
75916;SDS011;64595;50.148;14.334;2023-05-24T00:34:48;3.13;;;1.90;;
75916;SDS011;64595;50.148;14.334;2023-05-24T00:37:14;3.10;;;2.00;;
75916;SDS011;64595;50.148;14.334;2023-05-24T00:39:41;4.28;;;1.98;;
75916;SDS011;64595;50.148;14.334;2023-05-24T00:42:06;3.13;;;2.03;;
75916;SDS011;64595;50.148;14.334;2023-05-24T00:44:32;3.47;;;2.05;;
75916;SDS011;64595;50.148;14.334;2023-05-24T00:46:57;2.40;;;1.90;;
75916;SDS011;64595;50.148;14.334;2023-05-24T00:49:23;3.72;;;2.17;;
75916;SDS011;64595;50.148;14.334;2023-05-24T00:51:49;2.97;;;2.15;;
75916;SDS011;64595;50.148;14.334;2023-05-24T00:54:15;3.30;;;2.13;;
75916;SDS011;64595;50.148;14.334;2023-05-24T00:56:42;2.78;;;2.08;;
75916;SDS011;64595;50.148;14.334;2023-05-24T00:59:07;3.22;;;2.38;;
75916;SDS011;64595;50.148;14.334;2023-05-24T01:01:33;2.83;;;2.42;;
75916;SDS011;64595;50.148;14.334;2023-05-24T01:03:58;3.67;;;2.63;;
75916;SDS011;64595;50.148;14.334;2023-05-24T01:06:24;4.05;;;3.00;;
75916;SDS011;64595;50.148;14.334;2023-05-24T01:09:01;4.80;;;3.15;;
75916;SDS011;64595;50.148;14.334;2023-05-24T01:11:34;6.70;;;3.20;;
75916;SDS011;64595;50.148;14.334;2023-05-24T01:14:13;7.65;;;3.67;;
75916;SDS011;64595;50.148;14.334;2023-05-24T01:16:44;6.75;;;3.63;;
75916;SDS011;64595;50.148;14.334;2023-05-24T01:19:19;7.07;;;3.53;;
75916;SDS011;64595;50.148;14.334;2023-05-24T01:22:00;7.10;;;4.10;;
75916;SDS011;64595;50.148;14.334;2023-05-24T01:24:36;5.55;;;3.78;;
75916;SDS011;64595;50.148;14.334;2023-05-24T01:27:10;6.40;;;3.40;;
75916;SDS011;64595;50.148;14.334;2023-05-24T01:29:36;5.80;;;3.70;;
75916;SDS011;64595;50.148;14.334;2023-05-24T01:32:02;8.30;;;3.88;;
75916;SDS011;64595;50.148;14.334;2023-05-24T01:34:28;6.72;;;3.85;;
75916;SDS011;64595;50.148;14.334;2023-05-24T01:36:54;9.43;;;4.03;;
75916;SDS011;64595;50.148;14.334;2023-05-24T01:39:20;5.95;;;4.00;;
75916;SDS011;64595;50.148;14.334;2023-05-24T01:41:48;8.10;;;4.00;;
75916;SDS011;64595;50.148;14.334;2023-05-24T01:44:25;6.20;;;4.05;;
75916;SDS011;64595;50.148;14.334;2023-05-24T01:46:56;10.27;;;3.67;;
75916;SDS011;64595;50.148;14.334;2023-05-24T01:49:26;8.90;;;3.70;;
75916;SDS011;64595;50.148;14.334;2023-05-24T01:52:00;7.85;;;4.03;;
75916;SDS011;64595;50.148;14.334;2023-05-24T01:54:29;7.63;;;4.40;;
75916;SDS011;64595;50.148;14.334;2023-05-24T01:56:55;7.15;;;4.25;;
75916;SDS011;64595;50.148;14.334;2023-05-24T01:59:21;6.25;;;3.67;;
75916;SDS011;64595;50.148;14.334;2023-05-24T02:01:49;8.70;;;4.13;;
75916;SDS011;64595;50.148;14.334;2023-05-24T02:04:15;6.80;;;3.90;;
75916;SDS011;64595;50.148;14.334;2023-05-24T02:06:40;7.53;;;3.92;;
75916;SDS011;64595;50.148;14.334;2023-05-24T02:09:06;7.18;;;4.10;;
75916;SDS011;64595;50.148;14.334;2023-05-24T02:11:31;10.85;;;4.28;;
75916;SDS011;64595;50.148;14.334;2023-05-24T02:13:57;9.00;;;4.88;;
75916;SDS011;64595;50.148;14.334;2023-05-24T02:16:22;8.18;;;4.40;;
75916;SDS011;64595;50.148;14.334;2023-05-24T02:18:49;8.10;;;5.22;;
75916;SDS011;64595;50.148;14.334;2023-05-24T02:21:15;7.57;;;4.15;;
75916;SDS011;64595;50.148;14.334;2023-05-24T02:23:40;7.90;;;4.70;;
75916;SDS011;64595;50.148;14.334;2023-05-24T02:26:06;9.23;;;4.88;;
75916;SDS011;64595;50.148;14.334;2023-05-24T02:28:31;8.00;;;4.70;;
75916;SDS011;64595;50.148;14.334;2023-05-24T02:30:57;7.30;;;4.88;;
75916;SDS011;64595;50.148;14.334;2023-05-24T02:33:22;10.45;;;4.57;;
75916;SDS011;64595;50.148;14.334;2023-05-24T02:35:49;10.73;;;5.28;;
75916;SDS011;64595;50.148;14.334;2023-05-24T02:38:15;9.13;;;5.47;;
75916;SDS011;64595;50.148;14.334;2023-05-24T02:40:40;9.23;;;4.85;;
75916;SDS011;64595;50.148;14.334;2023-05-24T02:43:06;10.98;;;6.15;;
75916;SDS011;64595;50.148;14.334;2023-05-24T02:45:31;8.30;;;4.90;;
75916;SDS011;64595;50.148;14.334;2023-05-24T02:47:57;10.18;;;5.85;;
75916;SDS011;64595;50.148;14.334;2023-05-24T02:50:22;9.52;;;4.93;;
75916;SDS011;64595;50.148;14.334;2023-05-24T02:52:49;10.65;;;5.28;;
75916;SDS011;64595;50.148;14.334;2023-05-24T02:55:14;11.35;;;5.85;;
75916;SDS011;64595;50.148;14.334;2023-05-24T02:57:40;10.32;;;5.20;;
75916;SDS011;64595;50.148;14.334;2023-05-24T03:00:06;11.98;;;5.45;;
75916;SDS011;64595;50.148;14.334;2023-05-24T03:02:32;8.90;;;5.38;;
75916;SDS011;64595;50.148;14.334;2023-05-24T03:04:58;13.85;;;5.65;;
75916;SDS011;64595;50.148;14.334;2023-05-24T03:07:23;9.68;;;6.03;;
75916;SDS011;64595;50.148;14.334;2023-05-24T03:09:50;11.98;;;5.75;;
75916;SDS011;64595;50.148;14.334;2023-05-24T03:12:15;11.45;;;5.20;;
75916;SDS011;64595;50.148;14.334;2023-05-24T03:14:41;9.55;;;4.40;;
75916;SDS011;64595;50.148;14.334;2023-05-24T03:17:06;10.73;;;4.75;;
75916;SDS011;64595;50.148;14.334;2023-05-24T03:19:32;13.07;;;4.85;;
75916;SDS011;64595;50.148;14.334;2023-05-24T03:21:57;12.13;;;5.22;;
75916;SDS011;64595;50.148;14.334;2023-05-24T03:24:23;7.32;;;4.40;;
75916;SDS011;64595;50.148;14.334;2023-05-24T03:26:50;10.48;;;4.63;;
75916;SDS011;64595;50.148;14.334;2023-05-24T03:29:15;11.05;;;4.45;;
75916;SDS011;64595;50.148;14.334;2023-05-24T03:31:41;9.65;;;4.55;;
75916;SDS011;64595;50.148;14.334;2023-05-24T03:34:06;11.85;;;4.70;;
75916;SDS011;64595;50.148;14.334;2023-05-24T03:36:32;11.90;;;4.50;;
75916;SDS011;64595;50.148;14.334;2023-05-24T03:38:57;14.07;;;4.55;;
75916;SDS011;64595;50.148;14.334;2023-05-24T03:41:23;9.52;;;3.97;;
75916;SDS011;64595;50.148;14.334;2023-05-24T03:43:49;14.63;;;4.60;;
75916;SDS011;64595;50.148;14.334;2023-05-24T03:46:15;11.02;;;4.43;;
75916;SDS011;64595;50.148;14.334;2023-05-24T03:48:41;11.40;;;4.32;;
75916;SDS011;64595;50.148;14.334;2023-05-24T03:51:06;10.30;;;4.38;;
75916;SDS011;64595;50.148;14.334;2023-05-24T03:53:32;15.77;;;4.57;;
75916;SDS011;64595;50.148;14.334;2023-05-24T03:55:57;12.20;;;4.53;;
75916;SDS011;64595;50.148;14.334;2023-05-24T03:58:23;9.68;;;4.68;;
75916;SDS011;64595;50.148;14.334;2023-05-24T04:00:50;9.73;;;4.25;;
75916;SDS011;64595;50.148;14.334;2023-05-24T04:03:15;10.75;;;4.25;;
75916;SDS011;64595;50.148;14.334;2023-05-24T04:05:41;11.90;;;4.55;;
75916;SDS011;64595;50.148;14.334;2023-05-24T04:08:06;12.10;;;4.38;;
75916;SDS011;64595;50.148;14.334;2023-05-24T04:10:32;9.45;;;4.30;;
75916;SDS011;64595;50.148;14.334;2023-05-24T04:12:57;12.75;;;4.43;;
75916;SDS011;64595;50.148;14.334;2023-05-24T04:15:23;12.68;;;4.57;;
75916;SDS011;64595;50.148;14.334;2023-05-24T04:17:50;13.13;;;3.70;;
75916;SDS011;64595;50.148;14.334;2023-05-24T04:20:16;13.45;;;4.10;;
75916;SDS011;64595;50.148;14.334;2023-05-24T04:22:41;14.98;;;4.68;;
75916;SDS011;64595;50.148;14.334;2023-05-24T04:25:07;12.70;;;4.20;;
75916;SDS011;64595;50.148;14.334;2023-05-24T04:27:33;11.70;;;4.78;;
75916;SDS011;64595;50.148;14.334;2023-05-24T04:29:58;13.32;;;5.32;;
75916;SDS011;64595;50.148;14.334;2023-05-24T04:32:24;10.52;;;4.15;;
75916;SDS011;64595;50.148;14.334;2023-05-24T04:34:51;8.65;;;4.07;;
75916;SDS011;64595;50.148;14.334;2023-05-24T04:37:16;11.45;;;4.00;;
75916;SDS011;64595;50.148;14.334;2023-05-24T04:39:42;13.55;;;4.40;;
75916;SDS011;64595;50.148;14.334;2023-05-24T04:42:08;10.88;;;3.80;;
75916;SDS011;64595;50.148;14.334;2023-05-24T04:44:33;14.38;;;4.57;;
75916;SDS011;64595;50.148;14.334;2023-05-24T04:46:59;9.00;;;4.47;;
75916;SDS011;64595;50.148;14.334;2023-05-24T04:49:25;15.18;;;4.43;;
75916;SDS011;64595;50.148;14.334;2023-05-24T04:51:51;12.40;;;3.80;;
75916;SDS011;64595;50.148;14.334;2023-05-24T04:54:17;9.82;;;3.90;;
75916;SDS011;64595;50.148;14.334;2023-05-24T04:56:42;13.55;;;4.05;;
75916;SDS011;64595;50.148;14.334;2023-05-24T04:59:08;11.18;;;4.60;;
75916;SDS011;64595;50.148;14.334;2023-05-24T05:01:33;11.30;;;3.92;;
75916;SDS011;64595;50.148;14.334;2023-05-24T05:03:59;10.40;;;3.83;;
75916;SDS011;64595;50.148;14.334;2023-05-24T05:06:25;12.10;;;4.10;;
75916;SDS011;64595;50.148;14.334;2023-05-24T05:08:51;13.10;;;4.55;;
75916;SDS011;64595;50.148;14.334;2023-05-24T05:11:18;10.13;;;3.97;;
75916;SDS011;64595;50.148;14.334;2023-05-24T05:13:43;15.38;;;4.32;;
75916;SDS011;64595;50.148;14.334;2023-05-24T05:16:09;12.10;;;4.60;;
75916;SDS011;64595;50.148;14.334;2023-05-24T05:18:34;12.02;;;3.78;;
75916;SDS011;64595;50.148;14.334;2023-05-24T05:21:00;14.95;;;3.75;;
75916;SDS011;64595;50.148;14.334;2023-05-24T05:23:25;12.80;;;4.40;;
75916;SDS011;64595;50.148;14.334;2023-05-24T05:25:52;7.78;;;4.15;;
75916;SDS011;64595;50.148;14.334;2023-05-24T05:28:18;13.82;;;4.18;;
75916;SDS011;64595;50.148;14.334;2023-05-24T05:30:43;8.57;;;3.85;;
75916;SDS011;64595;50.148;14.334;2023-05-24T05:33:09;13.45;;;4.13;;
75916;SDS011;64595;50.148;14.334;2023-05-24T05:35:34;7.97;;;3.75;;
75916;SDS011;64595;50.148;14.334;2023-05-24T05:38:00;9.18;;;3.47;;
75916;SDS011;64595;50.148;14.334;2023-05-24T05:40:25;14.52;;;4.10;;
75916;SDS011;64595;50.148;14.334;2023-05-24T05:42:52;8.93;;;4.18;;
75916;SDS011;64595;50.148;14.334;2023-05-24T05:45:18;11.93;;;4.05;;
75916;SDS011;64595;50.148;14.334;2023-05-24T05:47:43;9.18;;;3.70;;
75916;SDS011;64595;50.148;14.334;2023-05-24T05:50:09;14.57;;;5.72;;
75916;SDS011;64595;50.148;14.334;2023-05-24T05:52:35;11.60;;;4.32;;
75916;SDS011;64595;50.148;14.334;2023-05-24T05:55:00;11.65;;;4.25;;
75916;SDS011;64595;50.148;14.334;2023-05-24T05:57:26;10.88;;;3.83;;
75916;SDS011;64595;50.148;14.334;2023-05-24T05:59:53;13.10;;;4.38;;
75916;SDS011;64595;50.148;14.334;2023-05-24T06:02:18;9.55;;;3.85;;
75916;SDS011;64595;50.148;14.334;2023-05-24T06:04:44;10.30;;;4.20;;
75916;SDS011;64595;50.148;14.334;2023-05-24T06:07:09;10.10;;;3.70;;
75916;SDS011;64595;50.148;14.334;2023-05-24T06:09:35;11.07;;;4.35;;
75916;SDS011;64595;50.148;14.334;2023-05-24T06:12:00;11.20;;;4.22;;
75916;SDS011;64595;50.148;14.334;2023-05-24T06:14:26;11.27;;;3.75;;
75916;SDS011;64595;50.148;14.334;2023-05-24T06:16:53;12.02;;;3.63;;
75916;SDS011;64595;50.148;14.334;2023-05-24T06:19:18;13.93;;;3.85;;
75916;SDS011;64595;50.148;14.334;2023-05-24T06:21:44;9.52;;;3.70;;
75916;SDS011;64595;50.148;14.334;2023-05-24T06:24:17;9.50;;;3.85;;
75916;SDS011;64595;50.148;14.334;2023-05-24T06:26:43;15.80;;;3.67;;
75916;SDS011;64595;50.148;14.334;2023-05-24T06:29:08;13.40;;;4.25;;
75916;SDS011;64595;50.148;14.334;2023-05-24T06:31:34;10.45;;;3.90;;
75916;SDS011;64595;50.148;14.334;2023-05-24T06:34:01;9.70;;;3.78;;
75916;SDS011;64595;50.148;14.334;2023-05-24T06:36:26;11.20;;;3.95;;
75916;SDS011;64595;50.148;14.334;2023-05-24T06:38:52;12.20;;;4.40;;
75916;SDS011;64595;50.148;14.334;2023-05-24T06:41:17;9.15;;;3.95;;
75916;SDS011;64595;50.148;14.334;2023-05-24T06:43:43;10.43;;;3.95;;
75916;SDS011;64595;50.148;14.334;2023-05-24T06:46:08;10.70;;;4.50;;
75916;SDS011;64595;50.148;14.334;2023-05-24T06:48:34;13.50;;;5.05;;
75916;SDS011;64595;50.148;14.334;2023-05-24T06:51:00;9.10;;;4.63;;
75916;SDS011;64595;50.148;14.334;2023-05-24T06:53:26;15.05;;;4.32;;
75916;SDS011;64595;50.148;14.334;2023-05-24T06:55:51;12.15;;;4.63;;
75916;SDS011;64595;50.148;14.334;2023-05-24T06:58:17;10.63;;;4.28;;
75916;SDS011;64595;50.148;14.334;2023-05-24T07:00:42;15.50;;;4.60;;
75916;SDS011;64595;50.148;14.334;2023-05-24T07:03:08;12.50;;;4.13;;
75916;SDS011;64595;50.148;14.334;2023-05-24T07:05:34;11.82;;;4.20;;
75916;SDS011;64595;50.148;14.334;2023-05-24T07:08:00;12.65;;;4.55;;
75916;SDS011;64595;50.148;14.334;2023-05-24T07:10:26;8.77;;;3.83;;
75916;SDS011;64595;50.148;14.334;2023-05-24T07:12:51;9.93;;;4.13;;
75916;SDS011;64595;50.148;14.334;2023-05-24T07:15:17;10.95;;;3.72;;
75916;SDS011;64595;50.148;14.334;2023-05-24T07:17:42;8.10;;;4.20;;
75916;SDS011;64595;50.148;14.334;2023-05-24T07:20:08;13.65;;;4.45;;
75916;SDS011;64595;50.148;14.334;2023-05-24T07:22:35;11.00;;;4.50;;
75916;SDS011;64595;50.148;14.334;2023-05-24T07:25:02;14.68;;;4.32;;
75916;SDS011;64595;50.148;14.334;2023-05-24T07:27:27;13.57;;;4.78;;
75916;SDS011;64595;50.148;14.334;2023-05-24T07:29:53;9.70;;;4.43;;
75916;SDS011;64595;50.148;14.334;2023-05-24T07:32:18;9.63;;;4.15;;
75916;SDS011;64595;50.148;14.334;2023-05-24T07:34:44;16.10;;;4.80;;
75916;SDS011;64595;50.148;14.334;2023-05-24T07:37:09;9.52;;;4.40;;
75916;SDS011;64595;50.148;14.334;2023-05-24T07:39:35;9.80;;;4.30;;
75916;SDS011;64595;50.148;14.334;2023-05-24T07:42:02;10.00;;;4.07;;
75916;SDS011;64595;50.148;14.334;2023-05-24T07:44:27;9.88;;;4.68;;
75916;SDS011;64595;50.148;14.334;2023-05-24T07:46:53;12.95;;;3.92;;
75916;SDS011;64595;50.148;14.334;2023-05-24T07:49:18;8.55;;;3.88;;
75916;SDS011;64595;50.148;14.334;2023-05-24T07:51:44;9.13;;;4.03;;
75916;SDS011;64595;50.148;14.334;2023-05-24T07:54:09;10.57;;;3.85;;
75916;SDS011;64595;50.148;14.334;2023-05-24T07:56:35;7.97;;;3.53;;
75916;SDS011;64595;50.148;14.334;2023-05-24T07:59:02;12.90;;;4.93;;
75916;SDS011;64595;50.148;14.334;2023-05-24T08:01:27;11.77;;;4.00;;
75916;SDS011;64595;50.148;14.334;2023-05-24T08:03:53;8.63;;;4.63;;
75916;SDS011;64595;50.148;14.334;2023-05-24T08:06:18;9.70;;;4.95;;
75916;SDS011;64595;50.148;14.334;2023-05-24T08:08:44;9.70;;;4.47;;
75916;SDS011;64595;50.148;14.334;2023-05-24T08:11:09;9.25;;;4.03;;
75916;SDS011;64595;50.148;14.334;2023-05-24T08:13:35;12.32;;;4.20;;
75916;SDS011;64595;50.148;14.334;2023-05-24T08:16:01;10.88;;;4.13;;
75916;SDS011;64595;50.148;14.334;2023-05-24T08:18:27;9.73;;;4.22;;
75916;SDS011;64595;50.148;14.334;2023-05-24T08:20:52;7.80;;;4.07;;
75916;SDS011;64595;50.148;14.334;2023-05-24T08:23:18;11.15;;;4.85;;
75916;SDS011;64595;50.148;14.334;2023-05-24T08:25:43;13.77;;;5.50;;
75916;SDS011;64595;50.148;14.334;2023-05-24T08:28:09;11.75;;;5.50;;
75916;SDS011;64595;50.148;14.334;2023-05-24T08:30:34;10.00;;;4.57;;
75916;SDS011;64595;50.148;14.334;2023-05-24T08:33:01;10.73;;;4.55;;
75916;SDS011;64595;50.148;14.334;2023-05-24T08:35:27;7.50;;;4.72;;
75916;SDS011;64595;50.148;14.334;2023-05-24T08:37:52;12.82;;;4.75;;
75916;SDS011;64595;50.148;14.334;2023-05-24T08:40:18;12.95;;;4.53;;
75916;SDS011;64595;50.148;14.334;2023-05-24T08:42:43;11.32;;;4.50;;
75916;SDS011;64595;50.148;14.334;2023-05-24T08:45:10;10.00;;;4.53;;
75916;SDS011;64595;50.148;14.334;2023-05-24T08:47:37;11.70;;;4.43;;
75916;SDS011;64595;50.148;14.334;2023-05-24T08:50:10;9.73;;;4.90;;
75916;SDS011;64595;50.148;14.334;2023-05-24T08:52:53;10.48;;;4.90;;
75916;SDS011;64595;50.148;14.334;2023-05-24T08:55:22;8.45;;;4.10;;
75916;SDS011;64595;50.148;14.334;2023-05-24T08:57:52;11.82;;;4.43;;
75916;SDS011;64595;50.148;14.334;2023-05-24T09:00:20;7.97;;;4.05;;
75916;SDS011;64595;50.148;14.334;2023-05-24T09:02:46;9.30;;;4.05;;
75916;SDS011;64595;50.148;14.334;2023-05-24T09:05:14;9.80;;;4.15;;
75916;SDS011;64595;50.148;14.334;2023-05-24T09:07:41;10.23;;;4.05;;
75916;SDS011;64595;50.148;14.334;2023-05-24T09:10:08;7.95;;;4.13;;
75916;SDS011;64595;50.148;14.334;2023-05-24T09:12:35;7.53;;;4.35;;
75916;SDS011;64595;50.148;14.334;2023-05-24T09:15:01;11.65;;;4.53;;
75916;SDS011;64595;50.148;14.334;2023-05-24T09:17:27;6.72;;;4.13;;
75916;SDS011;64595;50.148;14.334;2023-05-24T09:19:53;14.73;;;4.97;;
75916;SDS011;64595;50.148;14.334;2023-05-24T09:22:20;7.55;;;4.30;;
75916;SDS011;64595;50.148;14.334;2023-05-24T09:24:49;9.02;;;3.97;;
75916;SDS011;64595;50.148;14.334;2023-05-24T09:27:14;12.80;;;4.45;;
75916;SDS011;64595;50.148;14.334;2023-05-24T09:29:40;8.45;;;4.32;;
75916;SDS011;64595;50.148;14.334;2023-05-24T09:32:07;7.75;;;4.03;;
75916;SDS011;64595;50.148;14.334;2023-05-24T09:34:37;8.88;;;3.72;;
75916;SDS011;64595;50.148;14.334;2023-05-24T09:37:03;12.00;;;4.28;;
75916;SDS011;64595;50.148;14.334;2023-05-24T09:39:30;9.52;;;4.03;;
75916;SDS011;64595;50.148;14.334;2023-05-24T09:41:55;10.35;;;3.85;;
75916;SDS011;64595;50.148;14.334;2023-05-24T09:44:23;9.05;;;3.72;;
75916;SDS011;64595;50.148;14.334;2023-05-24T09:47:00;9.35;;;4.53;;
75916;SDS011;64595;50.148;14.334;2023-05-24T09:49:26;8.85;;;4.10;;
75916;SDS011;64595;50.148;14.334;2023-05-24T09:51:52;6.63;;;4.18;;
75916;SDS011;64595;50.148;14.334;2023-05-24T09:54:17;7.32;;;4.03;;
75916;SDS011;64595;50.148;14.334;2023-05-24T09:56:46;8.15;;;4.13;;
75916;SDS011;64595;50.148;14.334;2023-05-24T09:59:11;8.48;;;3.83;;
75916;SDS011;64595;50.148;14.334;2023-05-24T10:01:38;9.63;;;4.25;;
75916;SDS011;64595;50.148;14.334;2023-05-24T10:04:03;6.68;;;4.00;;
75916;SDS011;64595;50.148;14.334;2023-05-24T10:06:29;8.90;;;4.63;;
75916;SDS011;64595;50.148;14.334;2023-05-24T10:08:55;12.90;;;5.38;;
75916;SDS011;64595;50.148;14.334;2023-05-24T10:11:20;10.82;;;4.82;;
75916;SDS011;64595;50.148;14.334;2023-05-24T10:13:47;9.95;;;4.20;;
75916;SDS011;64595;50.148;14.334;2023-05-24T10:16:13;9.02;;;4.68;;
75916;SDS011;64595;50.148;14.334;2023-05-24T10:18:39;9.68;;;4.65;;
75916;SDS011;64595;50.148;14.334;2023-05-24T10:21:05;8.02;;;3.83;;
75916;SDS011;64595;50.148;14.334;2023-05-24T10:23:31;10.25;;;3.83;;
75916;SDS011;64595;50.148;14.334;2023-05-24T10:25:59;10.77;;;4.25;;
75916;SDS011;64595;50.148;14.334;2023-05-24T10:28:27;8.95;;;4.10;;
75916;SDS011;64595;50.148;14.334;2023-05-24T10:30:59;9.15;;;4.55;;
75916;SDS011;64595;50.148;14.334;2023-05-24T10:33:26;8.98;;;4.15;;
75916;SDS011;64595;50.148;14.334;2023-05-24T10:35:52;6.13;;;4.18;;
75916;SDS011;64595;50.148;14.334;2023-05-24T10:38:19;8.95;;;4.32;;
75916;SDS011;64595;50.148;14.334;2023-05-24T10:40:44;15.90;;;4.22;;
75916;SDS011;64595;50.148;14.334;2023-05-24T10:43:10;9.63;;;4.07;;
75916;SDS011;64595;50.148;14.334;2023-05-24T10:45:36;7.90;;;4.53;;
75916;SDS011;64595;50.148;14.334;2023-05-24T10:50:59;8.07;;;4.18;;
75916;SDS011;64595;50.148;14.334;2023-05-24T10:53:26;7.00;;;4.28;;
75916;SDS011;64595;50.148;14.334;2023-05-24T10:55:52;9.43;;;4.82;;
75916;SDS011;64595;50.148;14.334;2023-05-24T10:58:18;7.78;;;4.00;;
75916;SDS011;64595;50.148;14.334;2023-05-24T11:00:44;10.43;;;4.80;;
75916;SDS011;64595;50.148;14.334;2023-05-24T11:03:09;10.20;;;4.70;;
75916;SDS011;64595;50.148;14.334;2023-05-24T11:05:48;10.13;;;5.15;;
75916;SDS011;64595;50.148;14.334;2023-05-24T11:10:41;11.32;;;4.43;;
75916;SDS011;64595;50.148;14.334;2023-05-24T11:13:06;9.95;;;4.65;;
75916;SDS011;64595;50.148;14.334;2023-05-24T11:15:33;7.75;;;4.43;;
75916;SDS011;64595;50.148;14.334;2023-05-24T11:18:14;10.05;;;4.68;;
75916;SDS011;64595;50.148;14.334;2023-05-24T11:20:41;8.63;;;4.40;;
75916;SDS011;64595;50.148;14.334;2023-05-24T11:23:08;7.40;;;4.28;;
75916;SDS011;64595;50.148;14.334;2023-05-24T11:25:33;11.57;;;4.30;;
75916;SDS011;64595;50.148;14.334;2023-05-24T11:27:59;10.80;;;4.82;;
75916;SDS011;64595;50.148;14.334;2023-05-24T11:30:25;10.35;;;4.15;;
75916;SDS011;64595;50.148;14.334;2023-05-24T11:32:51;8.10;;;4.55;;
75916;SDS011;64595;50.148;14.334;2023-05-24T11:35:17;6.72;;;4.38;;
75916;SDS011;64595;50.148;14.334;2023-05-24T11:37:44;9.73;;;4.93;;
75916;SDS011;64595;50.148;14.334;2023-05-24T11:40:10;9.18;;;4.80;;
75916;SDS011;64595;50.148;14.334;2023-05-24T11:42:36;9.27;;;4.60;;
75916;SDS011;64595;50.148;14.334;2023-05-24T11:45:03;10.50;;;4.72;;
75916;SDS011;64595;50.148;14.334;2023-05-24T11:47:29;7.93;;;4.50;;
75916;SDS011;64595;50.148;14.334;2023-05-24T11:49:55;10.93;;;4.07;;
75916;SDS011;64595;50.148;14.334;2023-05-24T11:52:20;7.65;;;3.83;;
75916;SDS011;64595;50.148;14.334;2023-05-24T11:54:47;7.30;;;4.55;;
75916;SDS011;64595;50.148;14.334;2023-05-24T11:57:13;9.48;;;4.70;;
75916;SDS011;64595;50.148;14.334;2023-05-24T11:59:39;8.85;;;4.80;;
75916;SDS011;64595;50.148;14.334;2023-05-24T12:02:05;7.82;;;5.15;;
75916;SDS011;64595;50.148;14.334;2023-05-24T12:04:31;8.60;;;5.20;;
75916;SDS011;64595;50.148;14.334;2023-05-24T12:06:57;8.98;;;4.53;;
75916;SDS011;64595;50.148;14.334;2023-05-24T12:09:23;10.85;;;4.40;;
75916;SDS011;64595;50.148;14.334;2023-05-24T12:11:50;11.20;;;4.35;;
75916;SDS011;64595;50.148;14.334;2023-05-24T12:14:16;6.78;;;4.30;;
75916;SDS011;64595;50.148;14.334;2023-05-24T12:16:43;7.80;;;4.20;;
75916;SDS011;64595;50.148;14.334;2023-05-24T12:19:11;7.10;;;4.13;;
75916;SDS011;64595;50.148;14.334;2023-05-24T12:21:39;8.90;;;3.88;;
75916;SDS011;64595;50.148;14.334;2023-05-24T12:24:09;10.60;;;4.03;;
75916;SDS011;64595;50.148;14.334;2023-05-24T12:26:35;9.63;;;4.13;;
75916;SDS011;64595;50.148;14.334;2023-05-24T12:29:03;10.95;;;4.57;;
75916;SDS011;64595;50.148;14.334;2023-05-24T12:33:54;13.37;;;4.47;;
75916;SDS011;64595;50.148;14.334;2023-05-24T12:36:19;9.70;;;4.15;;
75916;SDS011;64595;50.148;14.334;2023-05-24T12:38:45;7.82;;;3.70;;
75916;SDS011;64595;50.148;14.334;2023-05-24T12:41:10;12.45;;;4.35;;
75916;SDS011;64595;50.148;14.334;2023-05-24T12:43:36;8.70;;;4.22;;
75916;SDS011;64595;50.148;14.334;2023-05-24T12:46:03;7.78;;;3.65;;
75916;SDS011;64595;50.148;14.334;2023-05-24T12:48:29;7.00;;;3.42;;
75916;SDS011;64595;50.148;14.334;2023-05-24T12:50:54;8.95;;;4.07;;
75916;SDS011;64595;50.148;14.334;2023-05-24T12:53:20;7.07;;;3.88;;
75916;SDS011;64595;50.148;14.334;2023-05-24T12:55:45;9.30;;;3.92;;
75916;SDS011;64595;50.148;14.334;2023-05-24T12:58:11;11.88;;;4.40;;
75916;SDS011;64595;50.148;14.334;2023-05-24T13:00:36;8.27;;;3.72;;
75916;SDS011;64595;50.148;14.334;2023-05-24T13:03:03;8.35;;;3.80;;
75916;SDS011;64595;50.148;14.334;2023-05-24T13:07:54;8.83;;;3.50;;
75916;SDS011;64595;50.148;14.334;2023-05-24T13:10:20;9.77;;;3.88;;
75916;SDS011;64595;50.148;14.334;2023-05-24T13:12:46;9.90;;;3.95;;
75916;SDS011;64595;50.148;14.334;2023-05-24T13:15:12;9.45;;;3.67;;
75916;SDS011;64595;50.148;14.334;2023-05-24T13:17:37;11.63;;;3.97;;
75916;SDS011;64595;50.148;14.334;2023-05-24T13:20:05;6.22;;;3.63;;
75916;SDS011;64595;50.148;14.334;2023-05-24T13:22:32;8.85;;;4.05;;
75916;SDS011;64595;50.148;14.334;2023-05-24T13:24:58;11.10;;;3.42;;
75916;SDS011;64595;50.148;14.334;2023-05-24T13:27:23;7.38;;;3.42;;
75916;SDS011;64595;50.148;14.334;2023-05-24T13:29:49;5.93;;;3.45;;
75916;SDS011;64595;50.148;14.334;2023-05-24T13:32:14;7.47;;;3.25;;
75916;SDS011;64595;50.148;14.334;2023-05-24T13:34:40;8.82;;;4.15;;
75916;SDS011;64595;50.148;14.334;2023-05-24T13:37:07;7.15;;;3.55;;
75916;SDS011;64595;50.148;14.334;2023-05-24T13:39:32;10.43;;;3.90;;
75916;SDS011;64595;50.148;14.334;2023-05-24T13:41:58;9.20;;;4.28;;
75916;SDS011;64595;50.148;14.334;2023-05-24T13:44:23;8.70;;;3.85;;
75916;SDS011;64595;50.148;14.334;2023-05-24T13:46:49;8.20;;;4.00;;
75916;SDS011;64595;50.148;14.334;2023-05-24T13:49:14;11.02;;;3.92;;
75916;SDS011;64595;50.148;14.334;2023-05-24T13:51:40;10.35;;;4.00;;
75916;SDS011;64595;50.148;14.334;2023-05-24T13:54:07;7.50;;;3.60;;
75916;SDS011;64595;50.148;14.334;2023-05-24T13:56:33;9.75;;;3.88;;
75916;SDS011;64595;50.148;14.334;2023-05-24T13:58:58;8.60;;;4.00;;
75916;SDS011;64595;50.148;14.334;2023-05-24T14:01:24;8.13;;;3.85;;
75916;SDS011;64595;50.148;14.334;2023-05-24T14:03:50;7.55;;;3.75;;
75916;SDS011;64595;50.148;14.334;2023-05-24T14:06:15;8.50;;;3.92;;
75916;SDS011;64595;50.148;14.334;2023-05-24T14:08:41;10.07;;;3.60;;
75916;SDS011;64595;50.148;14.334;2023-05-24T14:11:08;10.38;;;3.83;;
75916;SDS011;64595;50.148;14.334;2023-05-24T14:13:33;7.78;;;3.47;;
75916;SDS011;64595;50.148;14.334;2023-05-24T14:15:59;7.32;;;3.70;;
75916;SDS011;64595;50.148;14.334;2023-05-24T14:18:24;8.70;;;3.83;;
75916;SDS011;64595;50.148;14.334;2023-05-24T14:20:50;9.30;;;3.80;;
75916;SDS011;64595;50.148;14.334;2023-05-24T14:23:15;10.40;;;4.43;;
75916;SDS011;64595;50.148;14.334;2023-05-24T14:25:41;9.85;;;4.28;;
75916;SDS011;64595;50.148;14.334;2023-05-24T14:28:08;10.68;;;4.00;;
75916;SDS011;64595;50.148;14.334;2023-05-24T14:32:59;9.97;;;3.70;;
75916;SDS011;64595;50.148;14.334;2023-05-24T14:35:24;9.70;;;3.88;;